METAR stanice u blizini

 

LYBE - Beograd / Surčin, Srbija
Ažurirano: 24/10/2019 06:00
Vedro
Vedro
 Pravac vetra ZJZ
Vetar: ZJZ 6 km/h
Temperatura: 11°C
Tačka rose: 8°C
Vlažnost: 82%
Pritisak: 1017 hPa
Pregled: Vedro
Vidljivost: greater than 10 km
2019/10/24 04:00 LYBE 240400Z 24003KT 190V260 CAVOK 11/08 Q1017 NOSIG
LYBT - Beograd / Batajnica, Srbija
Ažurirano: 24/10/2019 06:00
Shallow fog, Delimično oblačno
Shallow fog, Delimično oblačno
 Pravac vetra calm
Vetar: Tišina
Temperatura: 7°C
Tačka rose: 7°C
Vlažnost: 100%
Pritisak: 1017 hPa
Pregled: Shallow Fog
Oblaci: Partly Cloudy
Vidljivost: 7 km
2019/10/24 04:00 LYBT 240400Z 00000KT 7000 MIFG NSC 07/07 Q1017 NOSIG
LYVR - Vršac, Srbija
Ažurirano: 23/10/2019 18:00
NOT Current
Vedro
Vedro
 Pravac vetra varies
Vetar: varies 2 km/h
Temperatura: 22°C
Tačka rose: 7°C
Vlažnost: 38%
Pritisak: 1019 hPa
Pregled: Vedro
Vidljivost: greater than 10 km
2019/10/23 16:00 LYVR 231600Z VRB01KT CAVOK 22/07 Q1019 NOSIG
 
LYKV - Lađevci, Srbija
Ažurirano: 24/10/2019 06:00
Mist, Delimično oblačno
Mist, Delimično oblačno
 Pravac vetra SSZ
Vetar: SSZ 2 km/h
Temperatura: 2°C
Tačka rose: 2°C
Vlažnost: 100%
Pritisak: 1020 hPa
Pregled: Mist
Oblaci: Partly Cloudy
Vidljivost: 5 km
2019/10/24 04:00 LYKV 240400Z 33001KT 5000 BR NSC 02/02 Q1020 NOSIG
LYNI - Niš, Srbija
Ažurirano: 24/10/2019 06:00
Vedro
Vedro
 Pravac vetra varies
Vetar: varies 4 km/h
Temperatura: 7°C
Tačka rose: 4°C
Vlažnost: 81%
Pritisak: 1020 hPa
Pregled: Vedro
Vidljivost: greater than 10 km
2019/10/24 04:00 LYNI 240400Z VRB02KT CAVOK 07/04 Q1020 NOSIG
BKPR - Priština, Srbija
Ažurirano: 24/10/2019 06:00
Vedro
Vedro
 Pravac vetra calm
Vetar: Tišina
Temperatura: 4°C
Tačka rose: 1°C
Vlažnost: 81%
Pritisak: 1021 hPa
Pregled: Vedro
Vidljivost: greater than 10 km
2019/10/24 04:00 BKPR 240400Z 00000KT CAVOK 04/01 Q1021 NOSIG
 
LHPP - Pecs / Pogany, Hungary
Ažurirano: 23/10/2019 18:45
NOT Current
Partly Cloudy
Partly Cloudy
 Pravac vetra JJI
Vetar: JJI 4 km/h
Temperatura: 19°C
Tačka rose: 11°C
Vlažnost: 60%
Pritisak: 1019 hPa
Oblaci: Partly Cloudy
Vidljivost: 6 km
2019/10/23 16:45 LHPP 231645Z 15002KT 6000 NSC 19/11 Q1019
LHUD - Szeged, Hungary
Ažurirano: 04/07/2019 01:45
NOT Current
Vedro
Vedro
 Pravac vetra S
Vetar: S 7 km/h
Temperatura: 18°C
Tačka rose: 13°C
Vlažnost: 73%
Pritisak: 1019 hPa
Pregled: Vedro
Vidljivost: greater than 10 km
2019/07/03 23:45 LHUD 032345Z 35004KT CAVOK 18/13 Q1019
LRTR - Timisoara, Romania
Ažurirano: 24/10/2019 06:00
Vedro
Vedro
 Pravac vetra I
Vetar: I 13 km/h
Temperatura: 8°C
Osećaj hladnoće: 6°C
Tačka rose: 6°C
Vlažnost: 87%
Pritisak: 1018 hPa
Pregled: Vedro
Vidljivost: greater than 10 km
2019/10/24 04:00 LRTR 240400Z 09007KT CAVOK 08/06 Q1018
 
LRCV - Craiova, Romania
Ažurirano: 24/10/2019 06:00
Mist, Delimično oblačno
Mist, Delimično oblačno
 Pravac vetra ISI
Vetar: ISI 11 km/h
Temperatura: 9°C
Osećaj hladnoće: 7°C
Tačka rose: 8°C
Vlažnost: 94%
Pritisak: 1020 hPa
Pregled: Mist
Oblaci: Partly Cloudy
Vidljivost: 2 km
2019/10/24 04:00 LRCV 240400Z 06006KT 1500 BR NSC 09/08 Q1020
LBSF - Sofia, Bulgaria
Ažurirano: 24/10/2019 06:00
Partly Cloudy
Partly Cloudy
 Pravac vetra I
Vetar: I 4 km/h
Temperatura: 4°C
Tačka rose: 2°C
Vlažnost: 87%
Pritisak: 1022 hPa
Oblaci: Partly Cloudy
Vidljivost: 8 km
2019/10/24 04:00 LBSF 240400Z 08002KT 8000 NSC 04/02 Q1022 TEMPO 4000 BR
LWSK - Skoplje, Makedonija
Ažurirano: 24/10/2019 06:00
Vedro
Vedro
 Pravac vetra calm
Vetar: Tišina
Temperatura: 4°C
Tačka rose: 2°C
Vlažnost: 87%
Pritisak: 1022 hPa
Pregled: Vedro
Vidljivost: greater than 10 km
2019/10/24 04:00 LWSK 240400Z 00000KT CAVOK 04/02 Q1022 NOSIG
 
LYPG - Podgorica, Crna Gora
Ažurirano: 24/10/2019 06:00
Vedro
Vedro
 Pravac vetra SSZ
Vetar: SSZ 6 km/h
Temperatura: 12°C
Tačka rose: 8°C
Vlažnost: 77%
Pritisak: 1018 hPa
Pregled: Vedro
Vidljivost: greater than 10 km
2019/10/24 04:00 LYPG 240400Z 34003KT CAVOK 12/08 Q1018 NOSIG
LQSA - Sarajevo, Bosna i Hercegovina
Ažurirano: 24/10/2019 06:00
Mist, Delimično oblačno
Mist, Delimično oblačno
 Pravac vetra ZSZ
Vetar: ZSZ 2 km/h
Temperatura: 3°C
Tačka rose: 3°C
Vlažnost: 100%
Pritisak: 1020 hPa
Pregled: Mist
Oblaci: Partly Cloudy
Vidljivost: 4 km
2019/10/24 04:00 LQSA 240400Z 29001KT 4000 BR NSC 03/03 Q1020
LDOS - Osijek, Hrvatksa
Ažurirano: 24/10/2019 06:00
Mist, Delimično oblačno
Mist, Delimično oblačno
 Pravac vetra varies
Vetar: varies 4 km/h
Temperatura: 5°C
Tačka rose: 5°C
Vlažnost: 100%
Pritisak: 1017 hPa
Pregled: Mist
Oblaci: Partly Cloudy
Vidljivost: 2 km
2019/10/24 04:00 LDOS 240400Z VRB02KT 2000 BR NSC 05/05 Q1017